Time;durP1;ratioP1;P1;durP2;ratioP2;P2;SDS_P1;SDS_P2;PMS_P1;PMS_P2;Temp;Humidity;BMP_temperature;BMP_pressure;BME280_temperature;BME280_humidity;BME280_pressure;Samples;Min_cycle;Max_cycle;Signal;HPM_P1;HPM_P2
2020/12/09 00:00:38;;;;;;;65.00;38.25;;;;;;;;;;5085798;28;20175;-75
2020/12/09 00:03:05;;;;;;;62.90;38.70;;;;;;;;;;5093667;28;20175;-76
2020/12/09 00:05:31;;;;;;;72.22;41.05;;;;;;;;;;5092578;28;20228;-75
2020/12/09 00:07:57;;;;;;;70.80;38.10;;;;;;;;;;5086139;28;20226;-75
2020/12/09 00:10:23;;;;;;;71.72;39.13;;;;;;;;;;5093596;28;20516;-75
2020/12/09 00:12:50;;;;;;;69.85;38.90;;;;;;;;;;5093105;28;20204;-74
2020/12/09 00:15:16;;;;;;;63.13;37.20;;;;;;;;;;5078851;28;20182;-73
2020/12/09 00:17:42;;;;;;;69.18;38.70;;;;;;;;;;5077195;28;20208;-77
2020/12/09 00:20:08;;;;;;;69.38;40.58;;;;;;;;;;5087929;28;20587;-75
2020/12/09 00:22:35;;;;;;;71.32;38.40;;;;;;;;;;5080629;28;20180;-75
2020/12/09 00:25:02;;;;;;;68.60;39.42;;;;;;;;;;5078341;28;20180;-77
2020/12/09 00:27:28;;;;;;;67.40;37.92;;;;;;;;;;5073792;28;20199;-76
2020/12/09 00:29:54;;;;;;;76.55;40.45;;;;;;;;;;5080111;28;20248;-74
2020/12/09 00:32:20;;;;;;;71.93;37.35;;;;;;;;;;5073484;28;20184;-77
2020/12/09 00:34:47;;;;;;;68.22;38.58;;;;;;;;;;5071778;28;20183;-76
2020/12/09 00:37:13;;;;;;;62.70;36.13;;;;;;;;;;5072747;28;20183;-73
2020/12/09 00:39:39;;;;;;;68.90;36.83;;;;;;;;;;5074093;28;20192;-74
2020/12/09 00:42:05;;;;;;;64.03;36.20;;;;;;;;;;5093237;28;20190;-77
2020/12/09 00:44:31;;;;;;;69.47;37.50;;;;;;;;;;5092887;28;20172;-76
2020/12/09 00:46:57;;;;;;;65.93;37.63;;;;;;;;;;5093645;28;20207;-73
2020/12/09 00:49:23;;;;;;;65.88;36.55;;;;;;;;;;5092823;28;20199;-75
2020/12/09 00:51:49;;;;;;;68.85;38.55;;;;;;;;;;5089828;28;20163;-73
2020/12/09 00:54:15;;;;;;;69.75;39.08;;;;;;;;;;5093347;28;20199;-77
2020/12/09 00:56:45;;;;;;;70.88;38.65;;;;;;;;;;5077011;28;20271;-76
2020/12/09 00:59:11;;;;;;;71.05;39.55;;;;;;;;;;5073138;28;20568;-76
2020/12/09 01:01:37;;;;;;;73.90;37.95;;;;;;;;;;5090925;28;20168;-78
2020/12/09 01:04:06;;;;;;;62.17;37.13;;;;;;;;;;5093467;28;20528;-75
2020/12/09 01:06:35;;;;;;;73.75;38.92;;;;;;;;;;5093473;28;20554;-74
2020/12/09 01:09:04;;;;;;;66.45;37.17;;;;;;;;;;5091933;28;20258;-74
2020/12/09 01:11:30;;;;;;;70.10;37.30;;;;;;;;;;5076542;28;20173;-75
2020/12/09 01:13:56;;;;;;;65.53;37.35;;;;;;;;;;5086580;28;20190;-75
2020/12/09 01:16:23;;;;;;;67.32;36.05;;;;;;;;;;5093445;28;20210;-75
2020/12/09 01:18:49;;;;;;;66.35;36.03;;;;;;;;;;5092059;28;20752;-73
2020/12/09 01:21:15;;;;;;;66.90;36.33;;;;;;;;;;5093336;28;20167;-74
2020/12/09 01:23:41;;;;;;;69.60;36.60;;;;;;;;;;5092118;28;20168;-76
2020/12/09 01:26:10;;;;;;;69.80;36.60;;;;;;;;;;5087815;28;20186;-75
2020/12/09 01:28:37;;;;;;;63.28;34.90;;;;;;;;;;5080917;28;20557;-75
2020/12/09 01:31:03;;;;;;;67.82;36.08;;;;;;;;;;5086899;28;20171;-76
2020/12/09 01:33:29;;;;;;;67.45;34.45;;;;;;;;;;5084576;28;20257;-74
2020/12/09 01:35:55;;;;;;;65.00;35.42;;;;;;;;;;5080233;28;20194;-76
2020/12/09 01:38:21;;;;;;;70.43;37.97;;;;;;;;;;5088985;28;20541;-76
2020/12/09 01:40:47;;;;;;;64.05;36.33;;;;;;;;;;5090181;28;20207;-75
2020/12/09 01:43:13;;;;;;;65.05;34.90;;;;;;;;;;5083071;28;20182;-73
2020/12/09 01:45:39;;;;;;;62.83;33.92;;;;;;;;;;5076159;28;20246;-77
2020/12/09 01:48:08;;;;;;;63.60;34.50;;;;;;;;;;5080385;28;20203;-75
2020/12/09 01:50:34;;;;;;;67.47;35.83;;;;;;;;;;5086573;28;20605;-74
2020/12/09 01:53:01;;;;;;;65.53;33.70;;;;;;;;;;5079688;28;20180;-76
2020/12/09 01:55:27;;;;;;;78.22;36.67;;;;;;;;;;5086818;28;20175;-74
2020/12/09 01:57:53;;;;;;;72.50;34.90;;;;;;;;;;5089904;28;20660;-76
2020/12/09 02:00:19;;;;;;;71.80;37.30;;;;;;;;;;5083521;28;20286;-76
2020/12/09 02:02:45;;;;;;;66.40;35.40;;;;;;;;;;5096312;28;20175;-75
2020/12/09 02:05:11;;;;;;;70.90;36.80;;;;;;;;;;5091812;28;20521;-75
2020/12/09 02:07:37;;;;;;;65.30;34.55;;;;;;;;;;5095854;28;20192;-76
2020/12/09 02:10:05;;;;;;;63.75;33.53;;;;;;;;;;5095587;28;20549;-74
2020/12/09 02:12:32;;;;;;;68.60;34.08;;;;;;;;;;5095334;28;20181;-76
2020/12/09 02:14:59;;;;;;;69.95;34.90;;;;;;;;;;5084574;28;20183;-77
2020/12/09 02:17:25;;;;;;;67.40;33.42;;;;;;;;;;5075379;28;20340;-74
2020/12/09 02:19:51;;;;;;;66.05;33.92;;;;;;;;;;5082083;28;20743;-74
2020/12/09 02:22:17;;;;;;;66.57;33.65;;;;;;;;;;5078988;28;20572;-74
2020/12/09 02:24:43;;;;;;;70.05;35.58;;;;;;;;;;5095104;28;20179;-75
2020/12/09 02:27:10;;;;;;;73.88;35.88;;;;;;;;;;5089143;28;20258;-74
2020/12/09 02:29:36;;;;;;;68.53;34.47;;;;;;;;;;5084925;28;20192;-77
2020/12/09 02:32:02;;;;;;;65.57;34.13;;;;;;;;;;5092126;28;20179;-76
2020/12/09 02:34:28;;;;;;;66.97;34.35;;;;;;;;;;5098374;28;20502;-74
2020/12/09 02:36:54;;;;;;;68.68;36.38;;;;;;;;;;5094474;28;20273;-75
2020/12/09 02:39:27;;;;;;;72.68;34.53;;;;;;;;;;5075060;28;20722;-75
2020/12/09 02:41:53;;;;;;;66.72;33.97;;;;;;;;;;5094964;28;20176;-73
2020/12/09 02:44:19;;;;;;;63.58;32.45;;;;;;;;;;5093806;28;20180;-75
2020/12/09 02:46:45;;;;;;;62.30;32.28;;;;;;;;;;5076807;28;20177;-75
2020/12/09 02:49:11;;;;;;;67.88;33.45;;;;;;;;;;5088700;28;20269;-74
2020/12/09 02:51:37;;;;;;;62.83;32.60;;;;;;;;;;5095009;28;20176;-75
2020/12/09 02:54:03;;;;;;;64.22;32.53;;;;;;;;;;5094361;28;20175;-74
2020/12/09 02:56:29;;;;;;;65.32;33.45;;;;;;;;;;5089435;28;20263;-75
2020/12/09 02:58:55;;;;;;;61.08;32.42;;;;;;;;;;5090512;28;20199;-75
2020/12/09 03:01:21;;;;;;;61.70;33.42;;;;;;;;;;5095021;28;20175;-73
2020/12/09 03:03:47;;;;;;;63.72;33.50;;;;;;;;;;5087279;28;20173;-76
2020/12/09 03:06:14;;;;;;;62.10;34.63;;;;;;;;;;5074896;28;20629;-76
2020/12/09 03:08:40;;;;;;;68.55;33.30;;;;;;;;;;5075210;28;20212;-76
2020/12/09 03:11:06;;;;;;;67.63;35.10;;;;;;;;;;5081581;28;20183;-76
2020/12/09 03:13:32;;;;;;;61.40;32.17;;;;;;;;;;5092924;28;20179;-75
2020/12/09 03:15:58;;;;;;;64.22;33.08;;;;;;;;;;5094625;28;20179;-76
2020/12/09 03:18:24;;;;;;;68.97;35.00;;;;;;;;;;5094172;28;20659;-76
2020/12/09 03:20:50;;;;;;;61.97;32.55;;;;;;;;;;5089137;28;20520;-74
2020/12/09 03:23:16;;;;;;;68.93;34.38;;;;;;;;;;5094208;28;20180;-74
2020/12/09 03:25:42;;;;;;;66.90;33.80;;;;;;;;;;5091832;28;20172;-75
2020/12/09 03:28:08;;;;;;;68.90;34.00;;;;;;;;;;5083538;28;20285;-74
2020/12/09 03:30:34;;;;;;;72.13;32.45;;;;;;;;;;5094282;28;20175;-72
2020/12/09 03:33:00;;;;;;;65.70;33.15;;;;;;;;;;5094549;28;20168;-74
2020/12/09 03:35:26;;;;;;;60.67;32.85;;;;;;;;;;5093751;28;20641;-73
2020/12/09 03:37:52;;;;;;;61.45;32.30;;;;;;;;;;5074902;28;20231;-74
2020/12/09 03:40:18;;;;;;;56.75;30.77;;;;;;;;;;5091647;28;20487;-76
2020/12/09 03:42:44;;;;;;;58.13;30.42;;;;;;;;;;5087427;28;20183;-74
2020/12/09 03:45:10;;;;;;;64.13;30.55;;;;;;;;;;5092309;28;20206;-75
2020/12/09 03:47:36;;;;;;;57.28;31.05;;;;;;;;;;5076238;28;20597;-74
2020/12/09 03:50:04;;;;;;;64.00;30.75;;;;;;;;;;5094365;28;20179;-76
2020/12/09 03:52:30;;;;;;;60.83;31.10;;;;;;;;;;5093481;28;20647;-76
2020/12/09 03:54:56;;;;;;;52.95;29.08;;;;;;;;;;5088069;28;20260;-74
2020/12/09 03:57:22;;;;;;;55.55;30.75;;;;;;;;;;5087037;28;20597;-74
2020/12/09 03:59:48;;;;;;;61.88;30.92;;;;;;;;;;5075610;28;20192;-76
2020/12/09 04:02:14;;;;;;;61.08;31.58;;;;;;;;;;5078936;28;20221;-73
2020/12/09 04:04:40;;;;;;;58.20;31.15;;;;;;;;;;5090103;28;20510;-75
2020/12/09 04:07:06;;;;;;;55.75;30.10;;;;;;;;;;5093426;28;20171;-72
2020/12/09 04:09:32;;;;;;;54.05;30.33;;;;;;;;;;5083197;28;20275;-75
2020/12/09 04:11:58;;;;;;;62.92;30.73;;;;;;;;;;5087630;28;20171;-75
2020/12/09 04:14:25;;;;;;;64.07;31.58;;;;;;;;;;5080694;28;20222;-75
2020/12/09 04:16:51;;;;;;;64.28;33.22;;;;;;;;;;5076875;28;20198;-75
2020/12/09 04:19:17;;;;;;;63.67;33.33;;;;;;;;;;5093217;28;20556;-75
2020/12/09 04:21:43;;;;;;;63.70;33.80;;;;;;;;;;5093006;28;20529;-77
2020/12/09 04:24:09;;;;;;;70.35;32.70;;;;;;;;;;5091202;28;20470;-75
2020/12/09 04:26:35;;;;;;;69.72;34.28;;;;;;;;;;5087172;28;20178;-75
2020/12/09 04:29:01;;;;;;;63.97;33.17;;;;;;;;;;5093150;28;20278;-77
2020/12/09 04:31:27;;;;;;;67.53;33.63;;;;;;;;;;5090356;28;20205;-76
2020/12/09 04:33:54;;;;;;;68.95;33.53;;;;;;;;;;5085871;28;20179;-76
2020/12/09 04:36:21;;;;;;;54.78;30.10;;;;;;;;;;5093493;28;20187;-74
2020/12/09 04:38:47;;;;;;;66.70;32.53;;;;;;;;;;5090633;28;20601;-75
2020/12/09 04:41:13;;;;;;;62.63;33.40;;;;;;;;;;5082299;28;20529;-75
2020/12/09 04:43:39;;;;;;;73.40;33.80;;;;;;;;;;5080935;28;20620;-74
2020/12/09 04:46:05;;;;;;;66.63;34.45;;;;;;;;;;5093263;28;20176;-75
2020/12/09 04:48:34;;;;;;;62.45;33.28;;;;;;;;;;5093038;28;20210;-77
2020/12/09 04:51:19;;;;;;;63.92;33.30;;;;;;;;;;5091949;28;20663;-74
2020/12/09 04:53:51;;;;;;;64.82;33.50;;;;;;;;;;5092508;28;20179;-76
2020/12/09 04:56:26;;;;;;;54.95;32.25;;;;;;;;;;5090780;28;20190;-75
2020/12/09 04:58:55;;;;;;;61.50;32.20;;;;;;;;;;5091313;28;20616;-76
2020/12/09 05:01:21;;;;;;;62.00;31.90;;;;;;;;;;5080520;28;20179;-76
2020/12/09 05:03:48;;;;;;;63.38;32.88;;;;;;;;;;5092266;28;20594;-75
2020/12/09 05:06:15;;;;;;;59.13;32.83;;;;;;;;;;5093364;28;20636;-74
2020/12/09 05:08:53;;;;;;;59.53;33.00;;;;;;;;;;5095078;28;20214;-75
2020/12/09 05:11:21;;;;;;;62.25;33.80;;;;;;;;;;5094882;28;20541;-75
2020/12/09 05:13:51;;;;;;;60.08;31.00;;;;;;;;;;5082603;28;20184;-73
2020/12/09 05:16:19;;;;;;;57.75;30.63;;;;;;;;;;5083745;28;20251;-74
2020/12/09 05:18:45;;;;;;;57.88;31.73;;;;;;;;;;5085729;28;20199;-75
2020/12/09 05:21:13;;;;;;;64.28;34.03;;;;;;;;;;5087752;28;20240;-75
2020/12/09 05:23:46;;;;;;;62.15;31.75;;;;;;;;;;5095209;28;20182;-75
2020/12/09 05:26:18;;;;;;;62.28;32.70;;;;;;;;;;5089607;28;20175;-74
2020/12/09 05:28:44;;;;;;;58.67;31.63;;;;;;;;;;5090945;28;20234;-74
2020/12/09 05:31:18;;;;;;;56.42;31.48;;;;;;;;;;5092714;28;20182;-74
2020/12/09 05:33:45;;;;;;;54.33;30.48;;;;;;;;;;5088082;28;20179;-75
2020/12/09 05:36:11;;;;;;;53.65;31.00;;;;;;;;;;5089520;28;20258;-76
2020/12/09 05:38:37;;;;;;;59.50;31.10;;;;;;;;;;5091900;28;20200;-77
2020/12/09 05:41:09;;;;;;;57.67;31.05;;;;;;;;;;5083255;28;20172;-75
2020/12/09 05:43:35;;;;;;;59.70;30.77;;;;;;;;;;5094150;28;20172;-74
2020/12/09 05:46:08;;;;;;;56.58;31.17;;;;;;;;;;5089386;28;20207;-76
2020/12/09 05:48:35;;;;;;;57.85;32.05;;;;;;;;;;5076184;28;20245;-77
2020/12/09 05:51:01;;;;;;;54.17;30.55;;;;;;;;;;5083614;28;20403;-76
2020/12/09 05:53:31;;;;;;;57.67;30.98;;;;;;;;;;5096118;28;20175;-77
2020/12/09 05:56:26;;;;;;;57.83;30.80;;;;;;;;;;5086899;28;20186;-75
2020/12/09 05:58:52;;;;;;;59.10;30.00;;;;;;;;;;5096077;28;20299;-74
2020/12/09 06:01:19;;;;;;;54.85;30.58;;;;;;;;;;5081513;28;20510;-76
2020/12/09 06:03:47;;;;;;;56.78;31.50;;;;;;;;;;5090814;28;20522;-74
2020/12/09 06:06:16;;;;;;;60.35;32.55;;;;;;;;;;5088564;28;20671;-76
2020/12/09 06:08:44;;;;;;;59.22;31.40;;;;;;;;;;5095526;28;20229;-75
2020/12/09 06:11:10;;;;;;;57.13;32.80;;;;;;;;;;5093432;28;20179;-74
2020/12/09 06:13:37;;;;;;;61.55;30.20;;;;;;;;;;5095425;28;20201;-74
2020/12/09 06:16:04;;;;;;;58.20;32.30;;;;;;;;;;5081482;28;20227;-76
2020/12/09 06:18:31;;;;;;;58.75;31.50;;;;;;;;;;5081885;28;20679;-74
2020/12/09 06:20:57;;;;;;;62.95;33.10;;;;;;;;;;5092310;28;20178;-74
2020/12/09 06:23:27;;;;;;;63.83;31.95;;;;;;;;;;5095329;28;20176;-76
2020/12/09 06:25:53;;;;;;;59.03;31.38;;;;;;;;;;5090405;28;20179;-75
2020/12/09 06:28:20;;;;;;;58.38;31.63;;;;;;;;;;5095022;28;20198;-76
2020/12/09 06:30:47;;;;;;;56.95;31.42;;;;;;;;;;5095191;28;20211;-75
2020/12/09 06:33:13;;;;;;;59.88;32.40;;;;;;;;;;5089955;28;20175;-75
2020/12/09 06:35:40;;;;;;;64.03;32.70;;;;;;;;;;5087945;28;20573;-76
2020/12/09 06:38:09;;;;;;;63.83;36.00;;;;;;;;;;5095254;28;20218;-75
2020/12/09 06:40:35;;;;;;;67.03;34.30;;;;;;;;;;5095045;28;20501;-76
2020/12/09 06:43:13;;;;;;;58.72;33.28;;;;;;;;;;5080985;28;20229;-74
2020/12/09 06:45:43;;;;;;;69.75;34.40;;;;;;;;;;5081797;28;20175;-75
2020/12/09 06:48:10;;;;;;;70.72;34.35;;;;;;;;;;5095296;28;20541;-74
2020/12/09 06:50:36;;;;;;;64.18;32.20;;;;;;;;;;5094681;28;20171;-73
2020/12/09 06:53:22;;;;;;;66.18;34.53;;;;;;;;;;5078039;28;20522;-76
2020/12/09 06:55:52;;;;;;;62.92;32.30;;;;;;;;;;5090447;28;20179;-75
2020/12/09 06:58:21;;;;;;;58.13;31.20;;;;;;;;;;5094457;28;20290;-74
2020/12/09 07:01:06;;;;;;;59.75;32.20;;;;;;;;;;5093627;28;20260;-76
2020/12/09 07:03:39;;;;;;;63.65;32.00;;;;;;;;;;5087904;28;20218;-76
2020/12/09 07:06:20;;;;;;;56.17;31.20;;;;;;;;;;5093264;28;20203;-74
2020/12/09 07:08:47;;;;;;;58.40;31.77;;;;;;;;;;5087761;28;20215;-75
2020/12/09 07:11:13;;;;;;;61.90;32.75;;;;;;;;;;5093569;28;20529;-77
2020/12/09 07:13:40;;;;;;;56.42;30.75;;;;;;;;;;5093851;28;20179;-75
2020/12/09 07:16:06;;;;;;;56.45;31.70;;;;;;;;;;5094232;28;20264;-75
2020/12/09 07:18:41;;;;;;;58.95;31.85;;;;;;;;;;5088748;28;20204;-74
2020/12/09 07:21:07;;;;;;;57.15;32.15;;;;;;;;;;5094367;28;20174;-73
2020/12/09 07:23:34;;;;;;;54.17;31.00;;;;;;;;;;5094161;28;20216;-75
2020/12/09 07:26:03;;;;;;;58.58;32.22;;;;;;;;;;5091098;28;20168;-75
2020/12/09 07:28:32;;;;;;;58.88;32.72;;;;;;;;;;5093971;28;20196;-75
2020/12/09 07:31:09;;;;;;;64.38;34.33;;;;;;;;;;5093335;28;20743;-75
2020/12/09 07:33:35;;;;;;;61.53;32.85;;;;;;;;;;5082047;28;20184;-76
2020/12/09 07:36:09;;;;;;;75.55;34.53;;;;;;;;;;5081075;28;20237;-75
2020/12/09 07:38:35;;;;;;;63.00;34.72;;;;;;;;;;5080719;28;20558;-76
2020/12/09 07:41:02;;;;;;;68.60;36.67;;;;;;;;;;5085570;28;20226;-75
2020/12/09 07:43:28;;;;;;;65.50;34.60;;;;;;;;;;5080249;28;20233;-75
2020/12/09 07:46:01;;;;;;;66.82;35.85;;;;;;;;;;5076541;28;20172;-76
2020/12/09 07:48:29;;;;;;;58.30;33.10;;;;;;;;;;5087315;28;20195;-77
2020/12/09 07:50:55;;;;;;;62.33;32.53;;;;;;;;;;5082860;28;20186;-75
2020/12/09 07:53:21;;;;;;;55.75;32.80;;;;;;;;;;5090127;28;20194;-75
2020/12/09 07:55:48;;;;;;;57.92;32.28;;;;;;;;;;5089426;28;20653;-74
2020/12/09 07:58:15;;;;;;;60.78;33.42;;;;;;;;;;5075538;28;20625;-76
2020/12/09 08:00:42;;;;;;;63.42;34.72;;;;;;;;;;5087621;28;20179;-75
2020/12/09 08:03:16;;;;;;;65.18;33.88;;;;;;;;;;5089235;28;20179;-76
2020/12/09 08:05:42;;;;;;;57.35;31.58;;;;;;;;;;5076365;28;20295;-74
2020/12/09 08:08:12;;;;;;;61.72;32.65;;;;;;;;;;5087146;28;20314;-72
2020/12/09 08:10:39;;;;;;;63.38;32.83;;;;;;;;;;5082046;28;20187;-76
2020/12/09 08:13:21;;;;;;;58.53;32.85;;;;;;;;;;5087029;28;20183;-73
2020/12/09 08:15:59;;;;;;;67.13;33.47;;;;;;;;;;5080513;28;20207;-76
2020/12/09 08:18:25;;;;;;;59.17;32.78;;;;;;;;;;5088316;28;20302;-77
2020/12/09 08:20:52;;;;;;;60.58;31.80;;;;;;;;;;5077849;28;20176;-77
2020/12/09 08:23:18;;;;;;;56.15;30.90;;;;;;;;;;5082790;28;20187;-74
2020/12/09 08:25:46;;;;;;;57.83;33.22;;;;;;;;;;5080278;28;20179;-74
2020/12/09 08:28:12;;;;;;;58.10;31.55;;;;;;;;;;5089118;28;20203;-75
2020/12/09 08:30:38;;;;;;;56.97;32.05;;;;;;;;;;5088595;28;20183;-75
2020/12/09 08:33:10;;;;;;;57.17;31.92;;;;;;;;;;5083256;28;20183;-73
2020/12/09 08:35:58;;;;;;;60.55;33.25;;;;;;;;;;5077351;28;20215;-76
2020/12/09 08:38:25;;;;;;;56.65;32.55;;;;;;;;;;5083895;28;20633;-76
2020/12/09 08:40:56;;;;;;;63.13;34.20;;;;;;;;;;5088538;28;20183;-75
2020/12/09 08:43:22;;;;;;;57.28;31.67;;;;;;;;;;5080593;28;20202;-75
2020/12/09 08:45:48;;;;;;;62.58;32.55;;;;;;;;;;5067270;28;20199;-74
2020/12/09 08:48:15;;;;;;;54.50;31.73;;;;;;;;;;5076570;28;20208;-74
2020/12/09 08:50:41;;;;;;;56.55;30.42;;;;;;;;;;5068802;28;20314;-75
2020/12/09 08:53:07;;;;;;;57.97;32.45;;;;;;;;;;5081903;28;20237;-75
2020/12/09 08:55:33;;;;;;;54.15;31.05;;;;;;;;;;5081369;28;20662;-73
2020/12/09 08:57:59;;;;;;;58.25;31.42;;;;;;;;;;5083190;28;20677;-74
2020/12/09 09:00:25;;;;;;;57.20;30.10;;;;;;;;;;5080242;28;20207;-75
2020/12/09 09:02:51;;;;;;;51.60;29.70;;;;;;;;;;5069785;28;20184;-75
2020/12/09 09:05:17;;;;;;;57.75;29.98;;;;;;;;;;5080655;28;20180;-76
2020/12/09 09:07:43;;;;;;;55.20;29.58;;;;;;;;;;5075752;28;20206;-75
2020/12/09 09:10:09;;;;;;;52.10;30.92;;;;;;;;;;5081255;28;20221;-75
2020/12/09 09:12:35;;;;;;;52.55;28.42;;;;;;;;;;5082341;28;20212;-77
2020/12/09 09:15:01;;;;;;;55.05;29.15;;;;;;;;;;5088191;28;20194;-76
2020/12/09 09:17:27;;;;;;;54.53;31.90;;;;;;;;;;5079003;28;20176;-75
2020/12/09 09:19:53;;;;;;;51.75;28.10;;;;;;;;;;5088441;28;20200;-77
2020/12/09 09:22:19;;;;;;;51.55;28.77;;;;;;;;;;5079333;28;20191;-76
2020/12/09 09:24:45;;;;;;;50.17;28.05;;;;;;;;;;5075934;28;20534;-74
2020/12/09 09:27:12;;;;;;;49.35;28.27;;;;;;;;;;5087722;28;20222;-72
2020/12/09 09:29:38;;;;;;;47.20;29.15;;;;;;;;;;5088509;28;20207;-77
2020/12/09 09:32:05;;;;;;;51.28;29.38;;;;;;;;;;5088939;28;20172;-75
2020/12/09 09:34:32;;;;;;;53.58;29.38;;;;;;;;;;5082964;28;20198;-74
2020/12/09 09:36:58;;;;;;;61.25;31.90;;;;;;;;;;5081529;28;20180;-74
2020/12/09 09:39:25;;;;;;;55.05;29.75;;;;;;;;;;5080710;28;20235;-74
2020/12/09 09:41:55;;;;;;;51.15;29.08;;;;;;;;;;5080000;28;20183;-76
2020/12/09 09:44:21;;;;;;;53.90;30.20;;;;;;;;;;5086717;28;20190;-76
2020/12/09 09:46:47;;;;;;;50.08;30.02;;;;;;;;;;5088491;28;20203;-74
2020/12/09 09:49:13;;;;;;;53.00;30.75;;;;;;;;;;5082527;28;20195;-75
2020/12/09 09:51:39;;;;;;;47.95;28.65;;;;;;;;;;5088833;28;20180;-76
2020/12/09 09:54:05;;;;;;;50.05;29.85;;;;;;;;;;5089574;28;20187;-75
2020/12/09 09:56:31;;;;;;;51.50;28.80;;;;;;;;;;5085470;28;20187;-75
2020/12/09 09:58:57;;;;;;;55.63;30.38;;;;;;;;;;5089530;28;20207;-74
2020/12/09 10:01:23;;;;;;;52.47;30.05;;;;;;;;;;5072177;28;20179;-75
2020/12/09 10:03:49;;;;;;;50.05;29.30;;;;;;;;;;5073991;28;20533;-76
2020/12/09 10:06:15;;;;;;;54.20;29.42;;;;;;;;;;5083779;28;20593;-74
2020/12/09 10:08:41;;;;;;;55.88;29.48;;;;;;;;;;5071527;28;20251;-75
2020/12/09 10:11:07;;;;;;;50.95;29.05;;;;;;;;;;5085131;28;20180;-75
2020/12/09 10:13:33;;;;;;;51.65;28.58;;;;;;;;;;5085464;28;20186;-73
2020/12/09 10:15:59;;;;;;;52.97;29.50;;;;;;;;;;5092051;28;20179;-76
2020/12/09 10:18:25;;;;;;;52.45;30.83;;;;;;;;;;5091603;28;20264;-74
2020/12/09 10:20:52;;;;;;;50.80;28.92;;;;;;;;;;5091665;28;20179;-77
2020/12/09 10:23:18;;;;;;;55.95;30.73;;;;;;;;;;5089804;28;20236;-75
2020/12/09 10:25:44;;;;;;;52.90;31.85;;;;;;;;;;5085662;28;20172;-74
2020/12/09 10:28:10;;;;;;;54.38;30.98;;;;;;;;;;5089583;28;20592;-74
2020/12/09 10:30:36;;;;;;;54.50;29.90;;;;;;;;;;5072240;28;20557;-76
2020/12/09 10:33:02;;;;;;;51.92;29.75;;;;;;;;;;5085878;28;20180;-73
2020/12/09 10:35:28;;;;;;;56.53;31.42;;;;;;;;;;5073117;28;20548;-73
2020/12/09 10:37:54;;;;;;;60.92;31.60;;;;;;;;;;5084150;28;20337;-74
2020/12/09 10:40:20;;;;;;;56.50;32.00;;;;;;;;;;5074403;28;20195;-75
2020/12/09 10:42:46;;;;;;;57.78;31.77;;;;;;;;;;5090812;28;20195;-74
2020/12/09 10:45:12;;;;;;;56.92;32.92;;;;;;;;;;5090938;28;20179;-76
2020/12/09 10:47:41;;;;;;;52.55;31.15;;;;;;;;;;5079715;28;20187;-76
2020/12/09 10:50:07;;;;;;;56.92;30.45;;;;;;;;;;5071123;28;20518;-73
2020/12/09 10:52:33;;;;;;;55.20;30.75;;;;;;;;;;5070870;28;20182;-75
2020/12/09 10:55:00;;;;;;;56.58;32.88;;;;;;;;;;5079466;28;20187;-74
2020/12/09 10:57:26;;;;;;;62.78;32.38;;;;;;;;;;5071000;28;20506;-74
2020/12/09 10:59:53;;;;;;;57.58;31.98;;;;;;;;;;5075798;28;20200;-75
2020/12/09 11:02:19;;;;;;;61.97;33.58;;;;;;;;;;5070837;28;20191;-77
2020/12/09 11:04:45;;;;;;;58.20;32.47;;;;;;;;;;5081334;28;20644;-76
2020/12/09 11:07:11;;;;;;;61.15;32.75;;;;;;;;;;5090512;28;20697;-75
2020/12/09 11:09:39;;;;;;;64.38;33.60;;;;;;;;;;5092551;28;20633;-74
2020/12/09 11:12:05;;;;;;;54.88;33.13;;;;;;;;;;5086774;28;20180;-75
2020/12/09 11:14:35;;;;;;;57.35;32.85;;;;;;;;;;5083186;28;20211;-75
2020/12/09 11:17:02;;;;;;;54.88;32.28;;;;;;;;;;5070843;28;20196;-74
2020/12/09 11:19:28;;;;;;;55.00;32.30;;;;;;;;;;5083913;28;20207;-75
2020/12/09 11:21:55;;;;;;;57.63;33.25;;;;;;;;;;5079330;28;20252;-76
2020/12/09 11:24:21;;;;;;;60.85;33.35;;;;;;;;;;5077733;28;20180;-75
2020/12/09 11:26:47;;;;;;;56.08;30.45;;;;;;;;;;5089367;28;20180;-73
2020/12/09 11:29:13;;;;;;;61.25;33.67;;;;;;;;;;5076593;28;20204;-74
2020/12/09 11:31:39;;;;;;;62.10;32.80;;;;;;;;;;5072760;28;20184;-77
2020/12/09 11:34:05;;;;;;;61.20;32.42;;;;;;;;;;5077578;28;20186;-76
2020/12/09 11:36:32;;;;;;;58.60;33.58;;;;;;;;;;5070303;28;20187;-77
2020/12/09 11:38:58;;;;;;;57.97;32.30;;;;;;;;;;5082751;28;20668;-74
2020/12/09 11:41:28;;;;;;;55.15;30.63;;;;;;;;;;5090227;28;20254;-75
2020/12/09 11:43:55;;;;;;;52.88;31.02;;;;;;;;;;5077281;28;20184;-75
2020/12/09 11:46:21;;;;;;;57.83;31.73;;;;;;;;;;5072136;28;20180;-75
2020/12/09 11:48:47;;;;;;;64.50;33.30;;;;;;;;;;5079230;28;20199;-76
2020/12/09 11:51:14;;;;;;;62.58;33.35;;;;;;;;;;5084391;28;20540;-76
2020/12/09 11:53:41;;;;;;;64.93;36.60;;;;;;;;;;5081682;28;20270;-75
2020/12/09 11:56:07;;;;;;;59.55;34.13;;;;;;;;;;5086097;28;20183;-76
2020/12/09 11:58:34;;;;;;;62.63;34.83;;;;;;;;;;5090478;28;20329;-76
2020/12/09 12:01:00;;;;;;;62.15;34.35;;;;;;;;;;5084222;28;20573;-75
2020/12/09 12:03:28;;;;;;;59.75;33.40;;;;;;;;;;5081399;28;20176;-76
2020/12/09 12:05:54;;;;;;;53.90;32.65;;;;;;;;;;5084055;28;20186;-75
2020/12/09 12:08:20;;;;;;;61.40;34.33;;;;;;;;;;5090969;28;20222;-78
2020/12/09 12:10:46;;;;;;;61.25;33.35;;;;;;;;;;5096357;28;20183;-73
2020/12/09 12:13:13;;;;;;;62.88;34.03;;;;;;;;;;5091335;28;20221;-72
2020/12/09 12:15:39;;;;;;;58.45;33.17;;;;;;;;;;5076937;28;20269;-75
2020/12/09 12:18:05;;;;;;;55.63;32.03;;;;;;;;;;5090918;28;20215;-75
2020/12/09 12:20:31;;;;;;;59.20;33.63;;;;;;;;;;5085136;28;20182;-76
2020/12/09 12:22:57;;;;;;;62.75;34.53;;;;;;;;;;5070526;28;20288;-77
2020/12/09 12:25:23;;;;;;;55.00;32.60;;;;;;;;;;5083155;28;20179;-76
2020/12/09 12:27:49;;;;;;;67.10;33.63;;;;;;;;;;5084931;28;20191;-76
2020/12/09 12:30:15;;;;;;;59.75;32.13;;;;;;;;;;5085666;28;20906;-76
2020/12/09 12:32:42;;;;;;;58.40;31.35;;;;;;;;;;5087641;28;20184;-78
2020/12/09 12:35:08;;;;;;;61.67;34.50;;;;;;;;;;5088784;28;20556;-74
2020/12/09 12:37:34;;;;;;;59.40;33.00;;;;;;;;;;5089165;28;20191;-76
2020/12/09 12:40:02;;;;;;;62.03;32.25;;;;;;;;;;5089358;28;20207;-76
2020/12/09 12:42:28;;;;;;;61.03;31.02;;;;;;;;;;5089078;28;20175;-77
2020/12/09 12:44:54;;;;;;;59.53;33.58;;;;;;;;;;5084581;28;20286;-76
2020/12/09 12:47:20;;;;;;;59.90;32.88;;;;;;;;;;5089207;28;20186;-76
2020/12/09 12:49:47;;;;;;;54.53;32.65;;;;;;;;;;5088984;28;20203;-76
2020/12/09 12:52:14;;;;;;;55.60;32.80;;;;;;;;;;5086293;28;20179;-77
2020/12/09 12:54:40;;;;;;;58.13;34.03;;;;;;;;;;5088800;28;20192;-76
2020/12/09 12:57:06;;;;;;;56.90;34.13;;;;;;;;;;5088965;28;20544;-76
2020/12/09 12:59:32;;;;;;;57.70;33.08;;;;;;;;;;5084631;28;20202;-76
2020/12/09 13:02:00;;;;;;;60.08;33.38;;;;;;;;;;5092786;28;20184;-73
2020/12/09 13:04:29;;;;;;;60.08;33.55;;;;;;;;;;5087427;28;20183;-72
2020/12/09 13:06:55;;;;;;;52.25;31.55;;;;;;;;;;5083739;28;20180;-75
2020/12/09 13:09:21;;;;;;;60.67;34.40;;;;;;;;;;5085455;28;20218;-76
2020/12/09 13:11:48;;;;;;;57.63;33.03;;;;;;;;;;5069605;28;20695;-76
2020/12/09 13:14:14;;;;;;;60.03;33.38;;;;;;;;;;5087663;28;20190;-76
2020/12/09 13:16:45;;;;;;;61.20;32.35;;;;;;;;;;5089197;28;20183;-73
2020/12/09 13:19:11;;;;;;;64.47;33.90;;;;;;;;;;5083704;28;20216;-77
2020/12/09 13:21:37;;;;;;;59.45;33.63;;;;;;;;;;5084214;28;20180;-75
2020/12/09 13:24:03;;;;;;;59.10;33.55;;;;;;;;;;5087648;28;20181;-74
2020/12/09 13:26:29;;;;;;;57.17;33.10;;;;;;;;;;5078386;28;20180;-75
2020/12/09 13:28:56;;;;;;;58.95;34.25;;;;;;;;;;5091783;28;20198;-72
2020/12/09 13:31:22;;;;;;;56.70;34.10;;;;;;;;;;5092446;28;20584;-73
2020/12/09 13:33:48;;;;;;;60.33;33.55;;;;;;;;;;5092398;28;20215;-75
2020/12/09 13:36:14;;;;;;;59.75;35.38;;;;;;;;;;5088278;28;20198;-75
2020/12/09 13:38:40;;;;;;;63.65;34.83;;;;;;;;;;5084727;28;20254;-76
2020/12/09 13:41:08;;;;;;;62.25;34.67;;;;;;;;;;5092546;28;20179;-76
2020/12/09 13:43:34;;;;;;;64.13;35.85;;;;;;;;;;5088232;28;20184;-74
2020/12/09 13:46:00;;;;;;;63.60;35.75;;;;;;;;;;5074154;28;20187;-76
2020/12/09 13:48:26;;;;;;;59.53;34.95;;;;;;;;;;5092287;28;20199;-76
2020/12/09 13:50:52;;;;;;;62.95;35.05;;;;;;;;;;5090161;28;20183;-74
2020/12/09 13:53:18;;;;;;;58.63;34.92;;;;;;;;;;5081997;28;20196;-77
2020/12/09 13:55:44;;;;;;;57.55;34.08;;;;;;;;;;5086339;28;20236;-74
2020/12/09 13:58:11;;;;;;;69.28;37.75;;;;;;;;;;5091055;28;20243;-74
2020/12/09 14:00:37;;;;;;;59.20;35.30;;;;;;;;;;5091947;28;20179;-75
2020/12/09 14:03:04;;;;;;;66.30;35.83;;;;;;;;;;5091863;28;20210;-78
2020/12/09 14:05:30;;;;;;;60.20;36.25;;;;;;;;;;5089410;28;20589;-75
2020/12/09 14:07:56;;;;;;;62.58;34.85;;;;;;;;;;5091186;28;20202;-76
2020/12/09 14:10:22;;;;;;;58.28;35.03;;;;;;;;;;5095218;28;20190;-74
2020/12/09 14:12:49;;;;;;;64.90;35.70;;;;;;;;;;5085880;28;20186;-76
2020/12/09 14:15:18;;;;;;;57.15;35.10;;;;;;;;;;5074577;28;20213;-74